Time;durP1;ratioP1;P1;durP2;ratioP2;P2;SDS_P1;SDS_P2;PMS_P1;PMS_P2;Temp;Humidity;BMP_temperature;BMP_pressure;BME280_temperature;BME280_humidity;BME280_pressure;Samples;Min_cycle;Max_cycle;Signal;HPM_P1;HPM_P2
2024/03/25 00:00:15;;;;;;;12.02;10.75;;;9.10;69.10;;;;;;4985428;28;113107;-57
2024/03/25 00:02:42;;;;;;;14.35;10.63;;;9.30;68.20;;;;;;4984484;28;113262;-56
2024/03/25 00:05:14;;;;;;;13.73;11.50;;;9.60;66.60;;;;;;4985911;28;112799;-56
2024/03/25 00:07:40;;;;;;;;;;;9.70;66.20;;;;;;4987412;28;112527;-56
2024/03/25 00:10:08;;;;;;;13.45;11.20;;;9.40;67.00;;;;;;5020668;28;112846;-56
2024/03/25 00:12:36;;;;;;;12.43;11.13;;;9.10;68.20;;;;;;4984988;28;113671;-56
2024/03/25 00:15:02;;;;;;;12.05;10.68;;;8.90;68.80;;;;;;4985666;28;112649;-56
2024/03/25 00:17:28;;;;;;;14.10;11.90;;;9.10;68.60;;;;;;4986432;28;112656;-57
2024/03/25 00:19:54;;;;;;;12.90;11.60;;;9.00;68.50;;;;;;4986562;28;112663;-56
2024/03/25 00:22:20;;;;;;;14.95;11.30;;;8.80;68.50;;;;;;4985589;28;113115;-57
2024/03/25 00:24:47;;;;;;;14.50;12.13;;;8.70;69.10;;;;;;4983589;28;116570;-56
2024/03/25 00:27:13;;;;;;;12.77;11.48;;;8.60;69.20;;;;;;4988670;28;112663;-56
2024/03/25 00:29:39;;;;;;;15.63;12.52;;;8.50;69.50;;;;;;4988567;28;112819;-56
2024/03/25 00:32:05;;;;;;;13.95;12.55;;;7.90;72.10;;;;;;4988596;28;113281;-56
2024/03/25 00:34:32;;;;;;;16.38;13.45;;;8.00;71.90;;;;;;4981082;28;113268;-56
2024/03/25 00:36:58;;;;;;;14.90;12.68;;;8.20;71.50;;;;;;4990287;28;112704;-57
2024/03/25 00:39:25;;;;;;;17.80;13.68;;;8.10;71.80;;;;;;4989028;28;113747;-56
2024/03/25 00:41:51;;;;;;;16.55;13.45;;;8.00;71.70;;;;;;4988015;28;115015;-56
2024/03/25 00:44:17;;;;;;;15.63;13.88;;;8.30;71.20;;;;;;4988600;28;113641;-56
2024/03/25 00:46:43;;;;;;;15.10;13.50;;;8.40;70.40;;;;;;4989617;28;112564;-56
2024/03/25 00:49:09;;;;;;;15.32;13.00;;;8.70;69.30;;;;;;4989321;28;113169;-56
2024/03/25 00:51:35;;;;;;;15.18;12.63;;;8.90;68.30;;;;;;4980262;28;113440;-56
2024/03/25 00:54:01;;;;;;;17.15;13.57;;;8.90;67.90;;;;;;5017411;28;112981;-57
2024/03/25 00:56:27;;;;;;;17.45;13.45;;;8.90;67.80;;;;;;4989312;28;112728;-56
2024/03/25 00:58:53;;;;;;;14.85;12.60;;;8.90;68.20;;;;;;4988039;28;112852;-56
2024/03/25 01:01:19;;;;;;;15.32;12.55;;;8.70;69.00;;;;;;4988256;28;113782;-57
2024/03/25 01:03:44;;;;;;;16.08;11.52;;;8.60;68.90;;;;;;4988389;28;113759;-56
2024/03/25 01:06:10;;;;;;;15.82;11.50;;;8.60;68.70;;;;;;4988643;28;112817;-56
2024/03/25 01:08:36;;;;;;;13.90;12.02;;;8.40;68.90;;;;;;4988978;28;112970;-57
2024/03/25 01:11:01;;;;;;;15.38;12.63;;;8.30;69.60;;;;;;4988173;28;113283;-56
2024/03/25 01:13:27;;;;;;;14.10;12.57;;;8.30;69.60;;;;;;4987801;28;114033;-56
2024/03/25 01:15:52;;;;;;;14.07;12.52;;;8.30;69.90;;;;;;4988869;28;112705;-56
2024/03/25 01:18:18;;;;;;;14.27;12.77;;;8.30;70.00;;;;;;4995483;28;112706;-55
2024/03/25 01:20:44;;;;;;;13.52;12.13;;;8.20;70.00;;;;;;4989275;28;113251;-56
2024/03/25 01:23:10;;;;;;;13.27;11.88;;;8.20;70.00;;;;;;4987947;28;113151;-57
2024/03/25 01:25:36;;;;;;;14.48;12.68;;;8.30;69.70;;;;;;4988646;28;112907;-56
2024/03/25 01:28:01;;;;;;;14.13;12.55;;;8.20;69.90;;;;;;4988908;28;112708;-56
2024/03/25 01:30:28;;;;;;;15.27;13.57;;;8.10;70.20;;;;;;4987909;28;113227;-56
2024/03/25 01:32:54;;;;;;;14.20;12.35;;;7.90;70.60;;;;;;4987561;28;113848;-56
2024/03/25 01:35:20;;;;;;;14.00;12.52;;;7.70;71.30;;;;;;4988553;28;113202;-56
2024/03/25 01:37:46;;;;;;;14.85;13.30;;;7.50;71.80;;;;;;4989271;28;112736;-56
2024/03/25 01:40:12;;;;;;;17.85;15.95;;;7.60;72.20;;;;;;4987135;28;114197;-56
2024/03/25 01:42:38;;;;;;;14.70;13.02;;;7.50;72.30;;;;;;4987459;28;113191;-56
2024/03/25 01:45:04;;;;;;;15.93;13.95;;;7.60;72.00;;;;;;4988655;28;113607;-56
2024/03/25 01:47:33;;;;;;;15.38;13.77;;;7.60;72.10;;;;;;4988949;28;112728;-56
2024/03/25 01:50:00;;;;;;;14.95;12.50;;;7.50;72.10;;;;;;4987644;28;113685;-56
2024/03/25 01:52:27;;;;;;;15.63;13.20;;;7.50;72.40;;;;;;4979840;28;112772;-57
2024/03/25 01:54:53;;;;;;;17.00;13.82;;;7.50;72.00;;;;;;4988618;28;113014;-56
2024/03/25 01:57:20;;;;;;;17.50;14.20;;;7.40;72.40;;;;;;4988067;28;112633;-56
2024/03/25 01:59:46;;;;;;;16.23;13.27;;;7.60;72.30;;;;;;4987643;28;113260;-56
2024/03/25 02:02:12;;;;;;;15.15;13.02;;;7.50;71.90;;;;;;4987047;28;113882;-59
2024/03/25 02:04:40;;;;;;;15.05;13.55;;;7.60;71.40;;;;;;4988175;28;112883;-56
2024/03/25 02:07:08;;;;;;;14.95;13.35;;;7.60;71.70;;;;;;4988506;28;112673;-56
2024/03/25 02:09:35;;;;;;;15.23;13.63;;;7.80;71.40;;;;;;4986350;28;113213;-56
2024/03/25 02:12:02;;;;;;;13.52;12.13;;;7.90;70.50;;;;;;4987247;28;112747;-56
2024/03/25 02:14:28;;;;;;;14.80;12.77;;;7.60;71.10;;;;;;4989651;28;112467;-56
2024/03/25 02:16:54;;;;;;;13.45;12.05;;;7.50;71.60;;;;;;4988096;28;113434;-56
2024/03/25 02:19:23;;;;;;;12.75;11.45;;;7.40;71.40;;;;;;4986959;28;113258;-55
2024/03/25 02:21:49;;;;;;;13.88;12.45;;;7.70;71.10;;;;;;4987040;28;112632;-55
2024/03/25 02:24:17;;;;;;;14.27;12.40;;;7.70;71.00;;;;;;4986321;28;112833;-56
2024/03/25 02:26:43;;;;;;;12.90;11.55;;;7.70;70.80;;;;;;4987743;28;112709;-55
2024/03/25 02:29:12;;;;;;;13.73;11.68;;;7.80;70.70;;;;;;4986663;28;113202;-56
2024/03/25 02:31:37;;;;;;;13.32;11.85;;;7.80;70.80;;;;;;4987218;28;113070;-56
2024/03/25 02:34:03;;;;;;;13.60;11.73;;;7.70;70.90;;;;;;4987702;28;113171;-56
2024/03/25 02:36:29;;;;;;;13.23;11.80;;;7.70;71.40;;;;;;4988485;28;113600;-56
2024/03/25 02:38:54;;;;;;;16.98;11.90;;;7.70;71.80;;;;;;4986625;28;116148;-56
2024/03/25 02:41:22;;;;;;;13.85;12.27;;;7.80;71.50;;;;;;4986574;28;112825;-56
2024/03/25 02:43:48;;;;;;;14.32;12.52;;;7.80;71.40;;;;;;4987686;28;112603;-56
2024/03/25 02:46:14;;;;;;;13.95;12.55;;;7.50;71.80;;;;;;4987759;28;112625;-57
2024/03/25 02:48:40;;;;;;;13.02;11.65;;;7.40;71.60;;;;;;4981390;28;113194;-56
2024/03/25 02:51:05;;;;;;;14.88;12.38;;;7.20;72.40;;;;;;4982648;28;114713;-55
2024/03/25 02:53:31;;;;;;;13.38;11.98;;;7.00;72.30;;;;;;4982725;28;112693;-56
2024/03/25 02:55:57;;;;;;;13.13;11.00;;;7.00;73.10;;;;;;4983236;28;112769;-56
2024/03/25 02:58:22;;;;;;;14.10;11.68;;;7.10;72.50;;;;;;4986137;28;113589;-56
2024/03/25 03:00:48;;;;;;;13.10;11.70;;;7.10;71.50;;;;;;4982161;28;112762;-56
2024/03/25 03:03:13;;;;;;;12.80;11.55;;;7.10;71.90;;;;;;4986329;28;112940;-56
2024/03/25 03:05:39;;;;;;;13.93;11.90;;;7.10;71.60;;;;;;4987686;28;113110;-56
2024/03/25 03:08:05;;;;;;;12.85;11.63;;;7.10;72.10;;;;;;4967408;28;113937;-56
2024/03/25 03:10:30;;;;;;;13.80;12.43;;;7.10;71.90;;;;;;4977359;28;114373;-56
2024/03/25 03:12:56;;;;;;;13.50;12.20;;;6.90;71.90;;;;;;4987322;28;112956;-57
2024/03/25 03:15:22;;;;;;;13.68;12.10;;;6.80;72.90;;;;;;4987573;28;112691;-56
2024/03/25 03:17:47;;;;;;;14.30;12.25;;;6.80;72.70;;;;;;4985514;28;113072;-56
2024/03/25 03:20:13;;;;;;;13.48;12.07;;;6.80;73.40;;;;;;4985660;28;114170;-56
2024/03/25 03:22:39;;;;;;;12.70;11.40;;;6.90;73.60;;;;;;4985492;28;113562;-56
2024/03/25 03:25:05;;;;;;;13.23;11.93;;;7.00;72.90;;;;;;4972356;28;112950;-56
2024/03/25 03:27:30;;;;;;;13.55;12.15;;;7.00;72.90;;;;;;4975903;28;115971;-56
2024/03/25 03:29:56;;;;;;;16.35;13.07;;;7.10;72.30;;;;;;4985982;28;112855;-57
2024/03/25 03:32:22;;;;;;;15.65;12.65;;;7.10;72.50;;;;;;4986609;28;112849;-57
2024/03/25 03:34:48;;;;;;;13.20;11.80;;;7.20;72.30;;;;;;4986559;28;112915;-56
2024/03/25 03:37:13;;;;;;;18.90;12.43;;;7.20;72.00;;;;;;4985187;28;114565;-56
2024/03/25 03:39:39;;;;;;;14.52;12.38;;;7.30;71.90;;;;;;4985787;28;113036;-55
2024/03/25 03:42:05;;;;;;;15.85;11.77;;;7.30;71.60;;;;;;4986760;28;114482;-56
2024/03/25 03:44:30;;;;;;;13.75;12.35;;;7.10;72.10;;;;;;4987238;28;112720;-56
2024/03/25 03:46:56;;;;;;;13.07;11.68;;;7.00;72.50;;;;;;4985577;28;113273;-56
2024/03/25 03:49:22;;;;;;;13.65;11.05;;;7.00;72.70;;;;;;4986124;28;112851;-57
2024/03/25 03:51:47;;;;;;;15.10;11.70;;;6.90;72.70;;;;;;4986330;28;112689;-56
2024/03/25 03:54:13;;;;;;;12.68;11.38;;;6.90;73.10;;;;;;4986862;28;113184;-56
2024/03/25 03:56:39;;;;;;;13.80;12.40;;;6.90;73.60;;;;;;4984715;28;114490;-56
2024/03/25 03:59:04;;;;;;;12.93;11.63;;;6.90;74.00;;;;;;4981686;28;113396;-56
2024/03/25 04:01:30;;;;;;;13.43;12.02;;;7.00;73.80;;;;;;4978967;28;112730;-56
2024/03/25 04:03:56;;;;;;;14.25;12.32;;;7.10;73.80;;;;;;4982378;28;112639;-55
2024/03/25 04:06:22;;;;;;;15.02;13.20;;;7.00;73.90;;;;;;4987678;28;114892;-55
2024/03/25 04:08:47;;;;;;;13.10;11.80;;;6.90;74.00;;;;;;4989140;28;113737;-55
2024/03/25 04:11:13;;;;;;;14.43;12.55;;;6.90;74.40;;;;;;4989471;28;112764;-56
2024/03/25 04:13:39;;;;;;;14.00;12.50;;;6.90;74.20;;;;;;4989919;28;112812;-55
2024/03/25 04:16:06;;;;;;;13.63;12.18;;;6.90;73.90;;;;;;4988268;28;114370;-56
2024/03/25 04:18:32;;;;;;;17.83;15.70;;;6.70;74.40;;;;;;4989086;28;113634;-55
2024/03/25 04:20:58;;;;;;;17.92;12.20;;;6.80;74.10;;;;;;4989519;28;112603;-56
2024/03/25 04:23:24;;;;;;;13.77;12.32;;;6.50;74.10;;;;;;4990250;28;112755;-56
2024/03/25 04:25:51;;;;;;;15.32;11.45;;;6.60;74.60;;;;;;4988699;28;113538;-56
2024/03/25 04:28:16;;;;;;;14.05;12.15;;;6.40;74.20;;;;;;4988770;28;112649;-55
2024/03/25 04:30:42;;;;;;;15.05;12.43;;;6.20;74.40;;;;;;4989606;28;112776;-55
2024/03/25 04:33:08;;;;;;;14.05;12.60;;;6.00;74.90;;;;;;4989416;28;113274;-56
2024/03/25 04:35:34;;;;;;;15.50;12.18;;;6.10;74.70;;;;;;4988552;28;113532;-56
2024/03/25 04:37:59;;;;;;;14.45;11.77;;;6.10;74.50;;;;;;4989438;28;112918;-56
2024/03/25 04:40:25;;;;;;;13.65;12.25;;;6.10;74.60;;;;;;4989035;28;112989;-56
2024/03/25 04:42:51;;;;;;;14.70;12.60;;;6.10;75.00;;;;;;4989468;28;112899;-56
2024/03/25 04:45:17;;;;;;;14.43;12.95;;;6.00;75.30;;;;;;4988391;28;113321;-55
2024/03/25 04:47:42;;;;;;;14.02;12.55;;;6.20;74.40;;;;;;4988152;28;114914;-56
2024/03/25 04:50:09;;;;;;;13.57;11.95;;;6.10;74.70;;;;;;4989384;28;113020;-56
2024/03/25 04:52:34;;;;;;;14.45;12.95;;;5.90;75.00;;;;;;4989687;28;112724;-56
2024/03/25 04:55:00;;;;;;;15.48;12.13;;;5.90;75.40;;;;;;4988353;28;113187;-56
2024/03/25 04:57:26;;;;;;;14.27;11.65;;;6.10;75.30;;;;;;4984274;28;112737;-56
2024/03/25 04:59:51;;;;;;;15.52;12.43;;;6.10;74.90;;;;;;4970029;28;112808;-55
2024/03/25 05:02:17;;;;;;;14.73;12.27;;;6.00;75.70;;;;;;4973431;28;112573;-56
2024/03/25 05:04:43;;;;;;;14.68;12.65;;;6.20;75.30;;;;;;4988181;28;113399;-56
2024/03/25 05:07:10;;;;;;;18.65;13.25;;;6.30;74.90;;;;;;4988228;28;112705;-55
2024/03/25 05:09:36;;;;;;;13.43;11.80;;;6.20;75.60;;;;;;4975443;28;112612;-55
2024/03/25 05:12:01;;;;;;;15.60;12.18;;;6.20;75.70;;;;;;4988354;28;112784;-55
2024/03/25 05:14:27;;;;;;;14.07;12.65;;;6.30;75.60;;;;;;4987785;28;113373;-56
2024/03/25 05:16:53;;;;;;;13.43;12.00;;;6.10;76.10;;;;;;4987981;28;113158;-55
2024/03/25 05:19:19;;;;;;;15.32;12.45;;;6.00;76.70;;;;;;4988976;28;112676;-56
2024/03/25 05:21:45;;;;;;;20.52;14.57;;;6.10;76.20;;;;;;4989272;28;113206;-56
2024/03/25 05:24:11;;;;;;;14.73;11.45;;;6.20;75.90;;;;;;4995556;28;113108;-55
2024/03/25 05:26:37;;;;;;;15.00;11.80;;;6.30;75.60;;;;;;4988295;28;113674;-56
2024/03/25 05:29:02;;;;;;;16.23;11.20;;;6.40;74.80;;;;;;4988688;28;113057;-56
2024/03/25 05:31:28;;;;;;;12.70;11.32;;;6.40;74.40;;;;;;4989273;28;113253;-56
2024/03/25 05:33:54;;;;;;;16.45;10.65;;;6.30;74.70;;;;;;4988306;28;113128;-56
2024/03/25 05:36:19;;;;;;;15.60;10.75;;;6.30;74.70;;;;;;5008950;28;113795;-56
2024/03/25 05:38:45;;;;;;;15.98;10.50;;;6.40;74.40;;;;;;4988811;28;112809;-55
2024/03/25 05:41:11;;;;;;;11.85;10.13;;;6.40;74.40;;;;;;4988711;28;112939;-55
2024/03/25 05:43:37;;;;;;;11.45;9.25;;;6.50;74.20;;;;;;4987657;28;114431;-55
2024/03/25 05:46:03;;;;;;;10.90;8.77;;;6.50;73.80;;;;;;4988790;28;112917;-56
2024/03/25 05:48:30;;;;;;;11.35;9.02;;;6.80;73.10;;;;;;4989788;28;112652;-55
2024/03/25 05:51:10;;;;;;;13.15;8.65;;;6.80;72.00;;;;;;4988051;28;112817;-56
2024/03/25 05:53:37;;;;;;;9.45;8.02;;;6.80;71.70;;;;;;4988794;28;113640;-57
2024/03/25 05:56:03;;;;;;;9.45;8.45;;;6.90;71.60;;;;;;4987890;28;112657;-55
2024/03/25 05:58:29;;;;;;;10.30;8.10;;;6.90;71.20;;;;;;4978679;28;112595;-56
2024/03/25 06:00:55;;;;;;;9.88;8.23;;;7.10;70.70;;;;;;4986696;28;113983;-56
2024/03/25 06:03:21;;;;;;;10.63;8.40;;;7.20;70.40;;;;;;4988276;28;114440;-56
2024/03/25 06:05:47;;;;;;;11.18;7.18;;;7.20;71.00;;;;;;4988191;28;112564;-56
2024/03/25 06:08:20;;;;;;;15.40;7.82;;;7.30;70.50;;;;;;4989271;28;112942;-55
2024/03/25 06:10:46;;;;;;;9.38;7.22;;;7.40;69.80;;;;;;4988914;28;112997;-55
2024/03/25 06:13:12;;;;;;;6.75;6.05;;;7.50;69.00;;;;;;4988016;28;113182;-56
2024/03/25 06:15:37;;;;;;;8.80;6.35;;;7.60;68.50;;;;;;4987967;28;113470;-56
2024/03/25 06:18:03;;;;;;;12.32;6.53;;;7.80;68.40;;;;;;4988232;28;112997;-56
2024/03/25 06:20:29;;;;;;;8.85;6.32;;;7.80;68.60;;;;;;4984795;28;114464;-56
2024/03/25 06:28:49;;;;;;;10.35;7.82;;;8.40;68.60;;;;;;5047749;27;112867;-58
2024/03/25 06:34:14;;;;;;;11.57;6.88;;;8.80;67.70;;;;;;5045164;27;113017;-60
2024/03/25 06:36:40;;;;;;;6.60;5.85;;;8.80;67.50;;;;;;5044254;27;113671;-58
2024/03/25 06:39:06;;;;;;;9.32;6.57;;;8.90;66.60;;;;;;5044352;27;112638;-58
2024/03/25 06:41:32;;;;;;;12.13;6.47;;;9.00;66.70;;;;;;5045203;27;112595;-58
2024/03/25 06:43:57;;;;;;;7.93;5.50;;;9.20;65.90;;;;;;5045190;27;112701;-58
2024/03/25 06:46:23;;;;;;;7.90;5.30;;;9.30;65.20;;;;;;5044081;27;113411;-59
2024/03/25 06:48:48;;;;;;;9.40;5.95;;;9.40;64.40;;;;;;5043997;27;113275;-58
2024/03/25 06:51:14;;;;;;;7.30;6.00;;;9.40;65.00;;;;;;5045496;27;112992;-59
2024/03/25 06:53:40;;;;;;;10.60;5.97;;;9.50;65.40;;;;;;5045007;27;112928;-59
2024/03/25 06:56:05;;;;;;;7.60;5.95;;;9.60;64.90;;;;;;5044058;27;113151;-58
2024/03/25 06:58:31;;;;;;;8.75;6.20;;;9.80;64.30;;;;;;5044052;27;113109;-58
2024/03/25 07:01:07;;;;;;;6.60;6.00;;;9.80;63.50;;;;;;5044932;27;112752;-59
2024/03/25 07:03:33;;;;;;;9.18;6.20;;;10.00;62.40;;;;;;5045448;27;113086;-59
2024/03/25 07:06:00;;;;;;;7.43;6.28;;;10.10;62.50;;;;;;5042243;27;113210;-59
2024/03/25 07:08:27;;;;;;;11.10;6.50;;;10.30;62.80;;;;;;5042856;27;113856;-59
2024/03/25 07:10:52;;;;;;;7.25;5.93;;;10.40;62.60;;;;;;5044650;27;112953;-59
2024/03/25 07:13:18;;;;;;;5.97;5.38;;;10.60;61.60;;;;;;5044669;27;112662;-59
2024/03/25 07:15:44;;;;;;;8.30;5.90;;;10.70;61.20;;;;;;5043430;27;113843;-58
2024/03/25 07:18:13;;;;;;;9.90;6.25;;;10.90;61.10;;;;;;5043728;27;113684;-58
2024/03/25 07:20:43;;;;;;;10.05;6.55;;;11.00;60.70;;;;;;5044825;27;112694;-59
2024/03/25 07:23:09;;;;;;;10.98;6.72;;;11.00;60.10;;;;;;5044539;27;113084;-59
2024/03/25 07:25:34;;;;;;;9.45;7.45;;;10.90;61.90;;;;;;5044311;27;113941;-58
2024/03/25 07:28:00;;;;;;;9.70;6.50;;;10.70;61.50;;;;;;5042961;27;113008;-58
2024/03/25 07:30:29;;;;;;;7.13;6.30;;;10.30;62.30;;;;;;5045029;27;112611;-59
2024/03/25 07:32:55;;;;;;;7.40;6.68;;;10.40;62.80;;;;;;5044589;27;113216;-59
2024/03/25 07:35:21;;;;;;;8.38;6.53;;;10.60;62.90;;;;;;5043458;27;114347;-59
2024/03/25 07:37:47;;;;;;;7.65;6.85;;;10.80;61.50;;;;;;5043424;27;112980;-59
2024/03/25 07:40:12;;;;;;;8.07;6.72;;;10.80;62.30;;;;;;5030281;27;112493;-59
2024/03/25 07:42:39;;;;;;;7.50;5.88;;;10.80;62.30;;;;;;5031008;28;112764;-59
2024/03/25 07:45:05;;;;;;;8.27;5.70;;;10.90;62.70;;;;;;5029833;28;113009;-59
2024/03/25 07:47:32;;;;;;;7.50;5.82;;;11.10;61.20;;;;;;5029949;27;112710;-59
2024/03/25 07:50:01;;;;;;;6.90;5.55;;;11.30;61.10;;;;;;5030803;28;112677;-59
2024/03/25 07:52:27;;;;;;;10.20;5.45;;;11.60;60.20;;;;;;5030852;28;112613;-59
2024/03/25 07:54:56;;;;;;;6.53;5.57;;;11.90;58.30;;;;;;5029289;28;113209;-59
2024/03/25 07:57:22;;;;;;;5.97;4.90;;;11.90;58.30;;;;;;5029370;27;113738;-59
2024/03/25 07:59:47;;;;;;;5.32;4.43;;;12.10;58.10;;;;;;5030548;28;112594;-59
2024/03/25 08:02:13;;;;;;;5.88;4.45;;;12.10;56.80;;;;;;5030661;28;112785;-59
2024/03/25 08:04:39;;;;;;;5.43;4.50;;;12.00;56.90;;;;;;5029563;28;113169;-59
2024/03/25 08:07:05;;;;;;;5.53;4.55;;;11.90;57.40;;;;;;5029636;27;112695;-60
2024/03/25 08:09:31;;;;;;;4.30;3.90;;;12.10;56.70;;;;;;5030568;27;112807;-59
2024/03/25 08:11:56;;;;;;;5.75;4.55;;;12.40;56.30;;;;;;5012355;28;112883;-59
2024/03/25 08:14:23;;;;;;;4.78;3.88;;;12.50;55.20;;;;;;5029414;28;114015;-59
2024/03/25 08:16:48;;;;;;;5.07;4.57;;;12.30;56.20;;;;;;5029393;28;113035;-59
2024/03/25 08:19:14;;;;;;;6.30;4.55;;;12.40;55.80;;;;;;5030363;28;114856;-59
2024/03/25 08:21:40;;;;;;;4.38;3.70;;;12.40;56.30;;;;;;5030807;28;112732;-59
2024/03/25 08:24:06;;;;;;;4.88;3.75;;;12.60;56.40;;;;;;5029877;28;113623;-59
2024/03/25 08:26:32;;;;;;;6.43;3.83;;;12.70;54.70;;;;;;5029102;28;112931;-59
2024/03/25 08:28:57;;;;;;;4.32;3.40;;;12.90;54.60;;;;;;5030527;28;113119;-59
2024/03/25 08:31:23;;;;;;;4.07;3.67;;;13.10;54.00;;;;;;5030223;28;112684;-60
2024/03/25 08:33:49;;;;;;;5.07;3.88;;;13.10;54.00;;;;;;5029116;28;113186;-59
2024/03/25 08:36:14;;;;;;;5.10;3.75;;;13.40;54.00;;;;;;5029185;28;112771;-60
2024/03/25 08:38:40;;;;;;;4.40;4.00;;;13.30;53.50;;;;;;5030456;28;112565;-60
2024/03/25 08:41:06;;;;;;;4.93;4.22;;;13.30;53.90;;;;;;5030218;28;112713;-59
2024/03/25 08:43:31;;;;;;;4.05;3.42;;;13.50;53.00;;;;;;5028931;28;113249;-59
2024/03/25 08:45:58;;;;;;;5.40;3.47;;;13.80;53.10;;;;;;5028942;28;114200;-60
2024/03/25 08:48:23;;;;;;;4.00;3.50;;;13.90;52.40;;;;;;5029720;28;112689;-59
2024/03/25 08:50:49;;;;;;;3.88;3.38;;;14.20;51.30;;;;;;5028853;27;112977;-60
2024/03/25 08:53:15;;;;;;;5.90;3.47;;;14.40;51.20;;;;;;5028841;28;113716;-60
2024/03/25 08:55:47;;;;;;;4.90;2.80;;;14.50;50.10;;;;;;5044098;27;113718;-60
2024/03/25 08:58:16;;;;;;;6.65;3.17;;;14.80;50.00;;;;;;5029874;27;112480;-60
2024/03/25 09:00:42;;;;;;;4.70;2.80;;;15.20;48.70;;;;;;5029779;27;112774;-60
2024/03/25 09:03:10;;;;;;;4.15;2.83;;;15.20;46.90;;;;;;5028794;28;113171;-60
2024/03/25 09:05:38;;;;;;;3.47;3.00;;;15.40;47.10;;;;;;5028387;28;113105;-60
2024/03/25 09:08:07;;;;;;;3.90;2.90;;;15.80;46.70;;;;;;5029637;28;112813;-60
2024/03/25 09:13:17;;;;;;;2.90;2.60;;;15.60;48.00;;;;;;5017069;28;113137;-60
2024/03/25 09:15:42;;;;;;;2.90;2.60;;;15.80;46.50;;;;;;5028173;28;113754;-60
2024/03/25 09:18:08;;;;;;;3.28;2.50;;;15.90;46.60;;;;;;5029350;28;112674;-60
2024/03/25 09:20:34;;;;;;;2.95;2.67;;;15.90;46.10;;;;;;5029855;28;113136;-60
2024/03/25 09:23:00;;;;;;;3.33;2.40;;;16.10;46.60;;;;;;5028472;28;112973;-60
2024/03/25 09:25:25;;;;;;;3.08;2.35;;;16.20;43.70;;;;;;5028785;28;114262;-60
2024/03/25 09:27:51;;;;;;;3.55;2.55;;;16.40;43.60;;;;;;5028708;28;112637;-60
2024/03/25 09:30:20;;;;;;;2.45;2.25;;;16.70;43.30;;;;;;5029273;28;112993;-60
2024/03/25 09:32:45;;;;;;;2.63;2.05;;;16.80;43.90;;;;;;5027963;28;113326;-60
2024/03/25 09:35:12;;;;;;;4.05;2.22;;;17.00;44.30;;;;;;5028360;27;112676;-60
2024/03/25 09:37:38;;;;;;;4.20;2.20;;;17.10;43.40;;;;;;5029394;27;112555;-60
2024/03/25 09:40:04;;;;;;;4.65;2.22;;;16.90;43.20;;;;;;5028778;28;112877;-60
2024/03/25 09:42:49;;;;;;;5.30;1.80;;;17.10;41.60;;;;;;5028285;28;113241;-61
2024/03/25 09:45:16;;;;;;;2.45;1.95;;;16.60;40.20;;;;;;5027649;27;113959;-60
2024/03/25 09:47:46;;;;;;;2.17;1.90;;;16.90;39.30;;;;;;5028904;28;112489;-59
2024/03/25 09:50:21;;;;;;;2.63;2.15;;;17.10;40.70;;;;;;5028842;28;112978;-59
2024/03/25 09:52:48;;;;;;;4.32;2.30;;;17.30;40.70;;;;;;5028117;28;113240;-59
2024/03/25 09:55:15;;;;;;;3.58;2.50;;;17.40;40.90;;;;;;5028209;28;112937;-59
2024/03/25 09:57:42;;;;;;;3.30;2.40;;;17.30;41.40;;;;;;5014760;28;112527;-59
2024/03/25 10:00:11;;;;;;;2.30;2.00;;;17.20;42.20;;;;;;5028948;28;112644;-59
2024/03/25 10:02:41;;;;;;;4.43;1.80;;;17.50;40.30;;;;;;5027293;27;113535;-59
2024/03/25 10:05:07;;;;;;;2.30;1.70;;;17.80;38.80;;;;;;5027785;28;112551;-59
2024/03/25 10:07:33;;;;;;;2.38;1.98;;;18.00;37.40;;;;;;5028392;28;112720;-59
2024/03/25 10:09:59;;;;;;;2.42;2.20;;;18.40;39.00;;;;;;5028754;28;113911;-59
2024/03/25 10:12:25;;;;;;;2.40;2.10;;;18.60;39.80;;;;;;5027423;28;113372;-59
2024/03/25 10:14:51;;;;;;;5.50;2.97;;;18.30;39.90;;;;;;5027747;27;113030;-59
2024/03/25 10:17:16;;;;;;;4.38;2.20;;;18.50;40.10;;;;;;5028796;28;112691;-59
2024/03/25 10:19:42;;;;;;;4.95;1.67;;;19.10;39.00;;;;;;5028608;28;113138;-60
2024/03/25 10:22:09;;;;;;;4.13;1.92;;;19.10;35.60;;;;;;5027397;28;114442;-60
2024/03/25 10:24:42;;;;;;;2.05;1.85;;;19.00;35.40;;;;;;5028037;28;113095;-60
2024/03/25 10:27:22;;;;;;;2.78;1.75;;;18.90;36.70;;;;;;5028339;27;112562;-59
2024/03/25 10:29:52;;;;;;;3.33;2.40;;;20.50;34.40;;;;;;5028261;27;112521;-59
2024/03/25 10:32:17;;;;;;;2.75;2.00;;;25.50;29.00;;;;;;5027239;28;114369;-59
2024/03/25 10:34:43;;;;;;;2.20;1.92;;;26.90;27.70;;;;;;5026783;28;112678;-60
2024/03/25 10:37:10;;;;;;;2.47;1.90;;;25.60;29.00;;;;;;5028263;27;113100;-59
2024/03/25 10:40:03;;;;;;;2.83;2.20;;;29.30;25.50;;;;;;5027962;27;112831;-60
2024/03/25 10:42:31;;;;;;;2.50;1.90;;;32.00;22.60;;;;;;5025772;27;113651;-60
2024/03/25 10:44:58;;;;;;;1.88;1.65;;;34.70;19.30;;;;;;5026236;28;113604;-60
2024/03/25 10:47:27;;;;;;;2.40;1.58;;;35.40;17.70;;;;;;5027961;28;113025;-61
2024/03/25 10:50:06;;;;;;;2.65;1.40;;;35.10;17.90;;;;;;5027352;28;112751;-60
2024/03/25 10:52:33;;;;;;;1.77;1.40;;;37.50;16.00;;;;;;5027013;28;113204;-61
2024/03/25 10:54:59;;;;;;;3.20;1.70;;;38.10;14.90;;;;;;5026574;28;112743;-61
2024/03/25 10:57:25;;;;;;;1.65;1.55;;;39.40;14.80;;;;;;5013675;27;112924;-62
2024/03/25 10:59:52;;;;;;;2.20;2.10;;;39.30;15.20;;;;;;5027713;27;113126;-62
2024/03/25 11:02:19;;;;;;;1.90;1.80;;;38.90;15.20;;;;;;5026218;28;114320;-62
2024/03/25 11:04:45;;;;;;;2.25;2.10;;;40.40;15.10;;;;;;5026568;27;113916;-63
2024/03/25 11:07:12;;;;;;;2.65;2.25;;;41.80;15.10;;;;;;5027482;28;112519;-63
2024/03/25 11:09:39;;;;;;;2.60;2.40;;;41.70;14.90;;;;;;5027493;27;112846;-64
2024/03/25 11:12:05;;;;;;;4.00;2.70;;;42.10;15.00;;;;;;5026672;27;113117;-63
2024/03/25 11:14:35;;;;;;;3.78;2.20;;;42.40;14.80;;;;;;5028079;28;114038;-64
2024/03/25 11:17:01;;;;;;;3.10;2.80;;;40.90;15.30;;;;;;5030775;27;112720;-64
2024/03/25 11:19:28;;;;;;;2.70;2.50;;;41.60;15.00;;;;;;5030671;28;112774;-64
2024/03/25 11:22:07;;;;;;;5.43;2.47;;;42.40;15.10;;;;;;5029829;27;113207;-65
2024/03/25 11:24:36;;;;;;;3.75;3.00;;;43.70;14.30;;;;;;5029962;27;114516;-63
2024/03/25 11:27:02;;;;;;;3.33;3.00;;;43.10;14.70;;;;;;5030804;27;112739;-63
2024/03/25 11:29:30;;;;;;;3.85;2.85;;;42.40;15.00;;;;;;5030314;28;113055;-65
2024/03/25 11:31:58;;;;;;;3.22;2.90;;;40.40;15.70;;;;;;5029618;27;114354;-65
2024/03/25 11:34:23;;;;;;;3.10;2.80;;;40.60;15.30;;;;;;5029432;28;113019;-65
2024/03/25 11:36:49;;;;;;;4.47;3.15;;;41.60;15.30;;;;;;5030636;28;112533;-65
2024/03/25 11:39:16;;;;;;;6.57;3.10;;;42.40;15.30;;;;;;5030644;28;114232;-63
2024/03/25 11:41:42;;;;;;;3.20;3.00;;;43.20;14.60;;;;;;5029513;27;113256;-63
2024/03/25 11:44:09;;;;;;;3.63;3.08;;;44.40;14.50;;;;;;5029365;27;113961;-64
2024/03/25 11:46:37;;;;;;;3.20;2.85;;;45.70;14.30;;;;;;5030566;28;112677;-64
2024/03/25 11:49:13;;;;;;;4.85;3.38;;;47.00;13.70;;;;;;5030402;28;113103;-64
2024/03/25 11:51:41;;;;;;;3.05;2.85;;;47.20;13.80;;;;;;5029400;27;114355;-64
2024/03/25 11:54:10;;;;;;;3.00;2.80;;;41.80;14.40;;;;;;5029277;27;112769;-64
2024/03/25 11:56:37;;;;;;;2.80;2.60;;;42.90;14.50;;;;;;5019148;27;112973;-64
2024/03/25 11:59:03;;;;;;;4.00;3.17;;;42.40;14.20;;;;;;5027116;28;112816;-64
2024/03/25 12:01:30;;;;;;;3.10;2.90;;;41.10;14.90;;;;;;5029155;28;113257;-64
2024/03/25 12:03:56;;;;;;;3.75;3.55;;;40.50;15.20;;;;;;5028838;28;113634;-63
2024/03/25 12:06:22;;;;;;;4.10;3.70;;;41.40;15.00;;;;;;5030267;28;112627;-64
2024/03/25 12:11:33;;;;;;;3.72;3.42;;;43.10;14.70;;;;;;5017426;28;112999;-65
2024/03/25 12:14:00;;;;;;;4.10;3.80;;;33.40;19.60;;;;;;5029013;27;112934;-65
2024/03/25 12:16:26;;;;;;;4.00;3.70;;;34.80;20.00;;;;;;5030744;27;112897;-64
2024/03/25 12:18:55;;;;;;;4.72;4.32;;;32.90;21.50;;;;;;5030209;27;112812;-64
2024/03/25 12:21:20;;;;;;;5.05;4.75;;;35.60;19.60;;;;;;5028503;28;114640;-65
2024/03/25 12:23:47;;;;;;;4.90;4.50;;;39.00;18.00;;;;;;5028789;28;112785;-65
2024/03/25 12:26:13;;;;;;;4.80;4.40;;;40.00;16.90;;;;;;5029954;27;112654;-66
2024/03/25 12:28:42;;;;;;;3.90;3.60;;;42.50;15.40;;;;;;5029771;27;112850;-63
2024/03/25 12:31:08;;;;;;;4.70;4.30;;;43.40;14.70;;;;;;5028400;27;114790;-64
2024/03/25 12:33:46;;;;;;;4.75;4.32;;;43.50;15.60;;;;;;5028712;28;112671;-64
2024/03/25 12:36:12;;;;;;;4.07;3.78;;;42.20;16.10;;;;;;5029476;27;112806;-64
2024/03/25 12:38:38;;;;;;;3.95;3.65;;;41.60;16.30;;;;;;5029740;27;112737;-64
2024/03/25 12:41:05;;;;;;;4.43;4.13;;;42.40;16.00;;;;;;5028462;28;114884;-64
2024/03/25 12:43:35;;;;;;;4.32;4.03;;;42.30;16.00;;;;;;5028404;27;113701;-64